Time;durP1;ratioP1;P1;durP2;ratioP2;P2;SDS_P1;SDS_P2;PMS_P1;PMS_P2;Temp;Humidity;BMP_temperature;BMP_pressure;BME280_temperature;BME280_humidity;BME280_pressure;Samples;Min_cycle;Max_cycle;Signal;HPM_P1;HPM_P2
2021/04/09 00:00:21;;;;;;;14.47;8.40;;;;;;;;;;6217650;22;20163;-88
2021/04/09 00:03:26;;;;;;;14.77;7.00;;;;;;;;;;6215079;22;20167;-90
2021/04/09 00:06:31;;;;;;;16.37;7.07;;;;;;;;;;6216589;23;20163;-90
2021/04/09 00:09:37;;;;;;;22.33;7.47;;;;;;;;;;6218191;23;20610;-90
2021/04/09 00:12:44;;;;;;;18.53;7.80;;;;;;;;;;6216036;23;20626;-90
2021/04/09 00:15:49;;;;;;;16.00;7.60;;;;;;;;;;6212876;22;20178;-90
2021/04/09 00:18:53;;;;;;;14.20;7.27;;;;;;;;;;6212365;22;20167;-91
2021/04/09 00:22:13;;;;;;;18.47;7.70;;;;;;;;;;6213364;23;20263;-90
2021/04/09 00:25:19;;;;;;;19.00;7.37;;;;;;;;;;6211100;23;20180;-91
2021/04/09 00:28:24;;;;;;;14.47;7.37;;;;;;;;;;6207537;23;20175;-89
2021/04/09 00:31:28;;;;;;;19.67;7.27;;;;;;;;;;6209322;22;20151;-90
2021/04/09 00:34:32;;;;;;;15.93;7.40;;;;;;;;;;6209734;23;20166;-90
2021/04/09 00:37:38;;;;;;;19.10;7.73;;;;;;;;;;6210799;23;20226;-90
2021/04/09 00:40:43;;;;;;;18.10;7.73;;;;;;;;;;6210620;23;20287;-89
2021/04/09 00:43:48;;;;;;;17.77;7.80;;;;;;;;;;6209307;23;20167;-89
2021/04/09 00:46:52;;;;;;;16.03;7.03;;;;;;;;;;6214197;23;20199;-90
2021/04/09 00:49:57;;;;;;;14.93;7.40;;;;;;;;;;6211269;23;20167;-89
2021/04/09 00:53:06;;;;;;;14.10;7.33;;;;;;;;;;6211542;23;20167;-90
2021/04/09 00:56:14;;;;;;;16.50;7.07;;;;;;;;;;6211244;23;20195;-89
2021/04/09 00:59:19;;;;;;;15.53;7.53;;;;;;;;;;6211995;23;20235;-90
2021/04/09 01:02:24;;;;;;;16.77;7.57;;;;;;;;;;6213168;22;20167;-89
2021/04/09 01:05:29;;;;;;;17.47;7.83;;;;;;;;;;6212449;22;20167;-90
2021/04/09 01:08:36;;;;;;;16.70;7.53;;;;;;;;;;6212772;23;20170;-90
2021/04/09 01:11:41;;;;;;;14.37;7.33;;;;;;;;;;6214020;23;20150;-90
2021/04/09 01:14:46;;;;;;;14.70;7.17;;;;;;;;;;6212445;23;20195;-90
2021/04/09 01:17:54;;;;;;;15.13;7.67;;;;;;;;;;6212391;23;20194;-89
2021/04/09 01:21:05;;;;;;;15.07;7.47;;;;;;;;;;6213203;23;20214;-90
2021/04/09 01:24:16;;;;;;;19.90;7.33;;;;;;;;;;6212600;23;20207;-89
2021/04/09 01:27:41;;;;;;;17.70;8.27;;;;;;;;;;6212203;23;20159;-89
2021/04/09 01:31:01;;;;;;;14.83;7.53;;;;;;;;;;6211993;23;20194;-91
2021/04/09 01:34:09;;;;;;;20.03;8.43;;;;;;;;;;6212579;22;20167;-88
2021/04/09 01:37:16;;;;;;;18.43;8.50;;;;;;;;;;6212158;23;20222;-90
2021/04/09 01:40:22;;;;;;;19.07;7.47;;;;;;;;;;6207156;23;20222;-89
2021/04/09 01:43:27;;;;;;;17.37;8.43;;;;;;;;;;6212225;23;20622;-90
2021/04/09 01:46:34;;;;;;;16.23;8.43;;;;;;;;;;6211834;23;20172;-90
2021/04/09 01:49:39;;;;;;;18.43;8.77;;;;;;;;;;6210377;23;20167;-89
2021/04/09 01:52:47;;;;;;;14.47;8.03;;;;;;;;;;6212623;23;20175;-90
2021/04/09 01:55:54;;;;;;;19.67;8.30;;;;;;;;;;6210158;23;20556;-89
2021/04/09 01:58:58;;;;;;;17.40;8.07;;;;;;;;;;6211369;23;20206;-89
2021/04/09 02:02:04;;;;;;;21.17;9.30;;;;;;;;;;6210461;22;20202;-88
2021/04/09 02:05:11;;;;;;;17.60;8.97;;;;;;;;;;6212198;23;20244;-91
2021/04/09 02:08:16;;;;;;;17.50;8.90;;;;;;;;;;6210706;23;20166;-90
2021/04/09 02:11:21;;;;;;;20.57;8.80;;;;;;;;;;6212077;23;20215;-90
2021/04/09 02:14:26;;;;;;;18.30;8.50;;;;;;;;;;6210770;23;20163;-87
2021/04/09 02:17:31;;;;;;;20.10;8.87;;;;;;;;;;6209802;23;20202;-89
2021/04/09 02:20:36;;;;;;;18.57;9.00;;;;;;;;;;6211491;22;20151;-89
2021/04/09 02:23:41;;;;;;;17.17;9.10;;;;;;;;;;6212089;23;20174;-90
2021/04/09 02:26:45;;;;;;;20.73;9.27;;;;;;;;;;6210589;23;20168;-91
2021/04/09 02:29:50;;;;;;;18.37;9.10;;;;;;;;;;6211544;23;20208;-89
2021/04/09 02:32:55;;;;;;;19.07;9.03;;;;;;;;;;6209529;23;20159;-90
2021/04/09 02:36:07;;;;;;;17.97;9.73;;;;;;;;;;6210320;22;20183;-88
2021/04/09 02:39:12;;;;;;;17.83;9.20;;;;;;;;;;6210214;22;20643;-89
2021/04/09 02:42:17;;;;;;;20.73;8.90;;;;;;;;;;6210829;23;20170;-90
2021/04/09 02:45:23;;;;;;;21.00;9.33;;;;;;;;;;6228577;23;20171;-90
2021/04/09 02:48:29;;;;;;;18.20;9.40;;;;;;;;;;6210366;23;20242;-89
2021/04/09 02:51:35;;;;;;;20.03;9.87;;;;;;;;;;6210144;22;20178;-91
2021/04/09 02:54:40;;;;;;;18.63;9.80;;;;;;;;;;6207901;22;20234;-89
2021/04/09 02:57:46;;;;;;;21.53;9.73;;;;;;;;;;6209814;23;20230;-89
2021/04/09 03:00:52;;;;;;;22.83;9.73;;;;;;;;;;6208392;23;20195;-89
2021/04/09 03:03:57;;;;;;;31.40;9.27;;;;;;;;;;6207541;23;20191;-89
2021/04/09 03:07:03;;;;;;;19.97;9.33;;;;;;;;;;6207648;22;20215;-89
2021/04/09 03:10:09;;;;;;;17.60;8.57;;;;;;;;;;6208269;22;20210;-90
2021/04/09 03:13:13;;;;;;;20.90;9.50;;;;;;;;;;6209254;23;20163;-88
2021/04/09 03:16:18;;;;;;;24.60;9.83;;;;;;;;;;6207828;23;20194;-91
2021/04/09 03:19:22;;;;;;;22.70;10.27;;;;;;;;;;6210756;23;20171;-88
2021/04/09 03:22:28;;;;;;;27.70;10.73;;;;;;;;;;6208766;23;20187;-88
2021/04/09 03:25:33;;;;;;;20.43;10.17;;;;;;;;;;6208763;23;20218;-90
2021/04/09 03:28:37;;;;;;;24.80;10.40;;;;;;;;;;6209979;23;20218;-90
2021/04/09 03:31:42;;;;;;;24.27;10.53;;;;;;;;;;6209648;23;20211;-91
2021/04/09 03:34:46;;;;;;;28.43;10.70;;;;;;;;;;6209661;23;20171;-90
2021/04/09 03:37:52;;;;;;;22.83;10.63;;;;;;;;;;6208497;23;20267;-89
2021/04/09 03:40:57;;;;;;;24.00;9.93;;;;;;;;;;6209058;22;20222;-91
2021/04/09 03:44:01;;;;;;;26.63;10.63;;;;;;;;;;6208608;22;20243;-89
2021/04/09 03:47:05;;;;;;;25.33;10.67;;;;;;;;;;6210558;23;20179;-89
2021/04/09 03:50:10;;;;;;;23.07;10.97;;;;;;;;;;6208820;23;20957;-90
2021/04/09 03:53:15;;;;;;;29.17;11.07;;;;;;;;;;6210541;23;20151;-89
2021/04/09 03:56:20;;;;;;;26.63;10.87;;;;;;;;;;6210081;23;20195;-90
2021/04/09 03:59:25;;;;;;;23.30;11.23;;;;;;;;;;6210170;22;20243;-89
2021/04/09 04:02:40;;;;;;;21.03;9.93;;;;;;;;;;6209790;23;20506;-89
2021/04/09 04:05:44;;;;;;;21.27;11.03;;;;;;;;;;6209689;22;20217;-89
2021/04/09 04:08:50;;;;;;;24.63;11.23;;;;;;;;;;6211999;23;20199;-88
2021/04/09 04:11:57;;;;;;;28.43;11.73;;;;;;;;;;6210881;22;20167;-89
2021/04/09 04:15:01;;;;;;;24.30;11.70;;;;;;;;;;6214904;23;20170;-89
2021/04/09 04:18:08;;;;;;;29.60;11.10;;;;;;;;;;6213050;23;20250;-90
2021/04/09 04:21:13;;;;;;;29.33;11.10;;;;;;;;;;6208990;23;20190;-90
2021/04/09 04:24:19;;;;;;;31.03;11.30;;;;;;;;;;6211259;23;20199;-89
2021/04/09 04:27:24;;;;;;;24.40;11.00;;;;;;;;;;6208137;23;20186;-89
2021/04/09 04:30:29;;;;;;;25.97;11.73;;;;;;;;;;6209675;22;20171;-89
2021/04/09 04:33:33;;;;;;;29.23;12.60;;;;;;;;;;6208506;22;20214;-90
2021/04/09 04:36:38;;;;;;;30.30;12.23;;;;;;;;;;6210366;23;20190;-89
2021/04/09 04:39:44;;;;;;;24.20;11.13;;;;;;;;;;6210402;23;20186;-88
2021/04/09 04:42:48;;;;;;;32.80;12.33;;;;;;;;;;6211614;23;20472;-90
2021/04/09 04:45:52;;;;;;;28.20;12.17;;;;;;;;;;6210404;23;20147;-90
2021/04/09 04:48:57;;;;;;;25.43;11.70;;;;;;;;;;6209975;22;20167;-89
2021/04/09 04:52:02;;;;;;;28.37;12.03;;;;;;;;;;6209619;23;20201;-90
2021/04/09 04:55:09;;;;;;;31.10;13.67;;;;;;;;;;6211508;23;20162;-90
2021/04/09 04:58:13;;;;;;;39.33;16.27;;;;;;;;;;6209280;23;20230;-91
2021/04/09 05:01:17;;;;;;;29.80;12.63;;;;;;;;;;6225922;22;20186;-90
2021/04/09 05:04:22;;;;;;;33.63;12.53;;;;;;;;;;6212173;22;20167;-90
2021/04/09 05:07:27;;;;;;;23.97;11.43;;;;;;;;;;6209322;22;20199;-91
2021/04/09 05:10:32;;;;;;;27.13;11.50;;;;;;;;;;6208482;23;20170;-90
2021/04/09 05:13:37;;;;;;;25.23;11.30;;;;;;;;;;6208010;23;20669;-89
2021/04/09 05:16:42;;;;;;;25.53;10.90;;;;;;;;;;6207593;23;20217;-91
2021/04/09 05:19:46;;;;;;;27.07;12.80;;;;;;;;;;6209483;23;20156;-90
2021/04/09 05:22:50;;;;;;;28.33;11.93;;;;;;;;;;6207045;23;20273;-90
2021/04/09 05:25:56;;;;;;;27.67;11.63;;;;;;;;;;6206884;23;20163;-90
2021/04/09 05:29:00;;;;;;;24.97;10.30;;;;;;;;;;6226773;23;20596;-91
2021/04/09 05:32:05;;;;;;;25.50;11.00;;;;;;;;;;6208585;23;20191;-91
2021/04/09 05:35:11;;;;;;;22.07;10.90;;;;;;;;;;6208655;23;20163;-91
2021/04/09 05:38:17;;;;;;;26.53;11.10;;;;;;;;;;6232696;23;20203;-90
2021/04/09 05:41:23;;;;;;;26.00;10.50;;;;;;;;;;6219057;23;20190;-90
2021/04/09 05:44:30;;;;;;;22.17;10.37;;;;;;;;;;6214052;23;20219;-91
2021/04/09 05:47:34;;;;;;;21.53;9.73;;;;;;;;;;6210592;23;20191;-91
2021/04/09 05:50:40;;;;;;;21.57;10.43;;;;;;;;;;6211036;22;20228;-89
2021/04/09 05:53:45;;;;;;;23.10;10.43;;;;;;;;;;6228032;23;20195;-89
2021/04/09 05:56:51;;;;;;;24.77;11.00;;;;;;;;;;6210554;23;20218;-89
2021/04/09 05:59:55;;;;;;;24.00;11.37;;;;;;;;;;6207102;23;20199;-89
2021/04/09 06:02:59;;;;;;;24.20;11.03;;;;;;;;;;6210358;23;20191;-90
2021/04/09 06:06:04;;;;;;;25.87;10.27;;;;;;;;;;6214456;23;20203;-89
2021/04/09 06:09:09;;;;;;;21.53;10.00;;;;;;;;;;6212980;22;20211;-91
2021/04/09 06:12:15;;;;;;;24.63;10.23;;;;;;;;;;6212433;22;20187;-90
2021/04/09 06:15:21;;;;;;;21.17;9.57;;;;;;;;;;6211493;23;20207;-89
2021/04/09 06:18:27;;;;;;;19.37;9.63;;;;;;;;;;6211940;23;20182;-90
2021/04/09 06:21:32;;;;;;;20.53;10.17;;;;;;;;;;6209948;23;20167;-89
2021/04/09 06:24:37;;;;;;;22.97;10.77;;;;;;;;;;6211040;23;20162;-90
2021/04/09 06:27:43;;;;;;;18.93;9.60;;;;;;;;;;6210720;23;20171;-90
2021/04/09 06:30:50;;;;;;;23.53;10.90;;;;;;;;;;6210843;23;20254;-90
2021/04/09 06:33:55;;;;;;;24.60;10.80;;;;;;;;;;6211871;23;20250;-91
2021/04/09 06:37:00;;;;;;;21.13;10.77;;;;;;;;;;6209277;23;20510;-90
2021/04/09 06:40:05;;;;;;;20.67;9.73;;;;;;;;;;6212504;23;20174;-91
2021/04/09 06:43:11;;;;;;;24.50;10.33;;;;;;;;;;6211839;22;20171;-91
2021/04/09 06:46:16;;;;;;;20.30;9.38;;;;;;;;;;6211065;23;20623;-89
2021/04/09 06:49:21;;;;;;;16.70;9.47;;;;;;;;;;6212339;23;20223;-90
2021/04/09 06:52:27;;;;;;;17.27;10.05;;;;;;;;;;6208578;23;20162;-90
2021/04/09 06:55:32;;;;;;;18.50;9.23;;;;;;;;;;6213397;22;20167;-91
2021/04/09 06:58:37;;;;;;;26.20;9.55;;;;;;;;;;6213070;22;20175;-91
2021/04/09 07:01:43;;;;;;;16.77;9.48;;;;;;;;;;6213448;23;20195;-90
2021/04/09 07:04:48;;;;;;;19.83;9.43;;;;;;;;;;6213644;23;20179;-91
2021/04/09 07:07:53;;;;;;;16.20;9.00;;;;;;;;;;6212539;23;20191;-91
2021/04/09 07:10:58;;;;;;;15.00;8.73;;;;;;;;;;6212107;23;20167;-91
2021/04/09 07:14:04;;;;;;;15.25;8.70;;;;;;;;;;6212016;22;20240;-92
2021/04/09 07:17:09;;;;;;;16.15;8.75;;;;;;;;;;6212628;22;20238;-90
2021/04/09 07:20:15;;;;;;;13.25;8.10;;;;;;;;;;6213214;23;20187;-91
2021/04/09 07:23:20;;;;;;;20.08;10.43;;;;;;;;;;6211315;23;20203;-91
2021/04/09 07:26:41;;;;;;;14.52;8.32;;;;;;;;;;6229068;22;20176;-92
2021/04/09 07:29:47;;;;;;;14.98;8.18;;;;;;;;;;6215773;23;20183;-93
2021/04/09 07:32:51;;;;;;;11.55;7.45;;;;;;;;;;6217405;23;20172;-92
2021/04/09 07:35:56;;;;;;;16.00;7.97;;;;;;;;;;6213889;23;20186;-91
2021/04/09 07:39:01;;;;;;;15.68;7.80;;;;;;;;;;6216105;23;20186;-92
2021/04/09 07:42:07;;;;;;;14.82;7.88;;;;;;;;;;6196471;23;20167;-92
2021/04/09 07:45:15;;;;;;;22.05;8.20;;;;;;;;;;6213657;22;20170;-92
2021/04/09 07:48:21;;;;;;;16.60;7.60;;;;;;;;;;6211675;22;20182;-92
2021/04/09 07:51:26;;;;;;;11.85;6.90;;;;;;;;;;6212984;23;20206;-91
2021/04/09 07:54:30;;;;;;;16.13;7.32;;;;;;;;;;6212671;23;20167;-91
2021/04/09 07:57:34;;;;;;;13.25;7.28;;;;;;;;;;6211475;23;20278;-92
2021/04/09 08:00:40;;;;;;;13.27;6.82;;;;;;;;;;6212526;23;20207;-92
2021/04/09 08:03:45;;;;;;;13.10;6.50;;;;;;;;;;6212795;22;20211;-91
2021/04/09 08:06:49;;;;;;;14.18;7.10;;;;;;;;;;6211743;23;20663;-91
2021/04/09 08:09:55;;;;;;;14.88;7.18;;;;;;;;;;6214771;23;20209;-91
2021/04/09 08:13:01;;;;;;;16.50;7.53;;;;;;;;;;6213336;23;20530;-91
2021/04/09 08:16:25;;;;;;;11.70;6.95;;;;;;;;;;6211685;23;20167;-90
2021/04/09 08:19:29;;;;;;;16.38;7.80;;;;;;;;;;6211970;22;20187;-90
2021/04/09 08:22:36;;;;;;;10.57;6.57;;;;;;;;;;6212336;23;20175;-91
2021/04/09 08:25:41;;;;;;;10.20;6.55;;;;;;;;;;6215007;23;20182;-91
2021/04/09 08:28:47;;;;;;;14.13;6.72;;;;;;;;;;6210830;23;20172;-92
2021/04/09 08:31:54;;;;;;;12.90;6.70;;;;;;;;;;6211774;23;20147;-92
2021/04/09 08:34:59;;;;;;;16.88;6.72;;;;;;;;;;6213434;22;20552;-91
2021/04/09 08:38:04;;;;;;;16.55;6.97;;;;;;;;;;6214329;23;20166;-91
2021/04/09 08:41:10;;;;;;;11.85;6.55;;;;;;;;;;6213286;23;20195;-91
2021/04/09 08:44:15;;;;;;;13.77;6.70;;;;;;;;;;6212936;23;20171;-90
2021/04/09 08:47:21;;;;;;;11.95;6.32;;;;;;;;;;6213891;22;20178;-90
2021/04/09 08:50:27;;;;;;;16.75;6.32;;;;;;;;;;6214652;22;20191;-91
2021/04/09 08:53:35;;;;;;;14.68;5.88;;;;;;;;;;6214467;23;20162;-91
2021/04/09 08:56:40;;;;;;;12.70;5.63;;;;;;;;;;6214129;23;20171;-91
2021/04/09 08:59:49;;;;;;;9.88;6.00;;;;;;;;;;6213195;23;20167;-91
2021/04/09 09:02:59;;;;;;;12.88;5.78;;;;;;;;;;6214343;23;20166;-92
2021/04/09 09:06:04;;;;;;;16.33;5.70;;;;;;;;;;6214419;22;20195;-91
2021/04/09 09:09:10;;;;;;;11.63;5.30;;;;;;;;;;6211925;23;20217;-91
2021/04/09 09:12:15;;;;;;;11.10;5.75;;;;;;;;;;6215372;23;20171;-91
2021/04/09 09:15:52;;;;;;;14.93;5.47;;;;;;;;;;6213971;23;20493;-92
2021/04/09 09:18:58;;;;;;;10.90;5.45;;;;;;;;;;6214129;22;20215;-93
2021/04/09 09:22:11;;;;;;;10.07;4.75;;;;;;;;;;6212696;23;20191;-92
2021/04/09 09:25:16;;;;;;;12.23;4.57;;;;;;;;;;6213907;23;20175;-90
2021/04/09 09:28:30;;;;;;;11.48;5.07;;;;;;;;;;6214175;23;20255;-91
2021/04/09 09:31:35;;;;;;;6.78;4.30;;;;;;;;;;6212851;23;20154;-91
2021/04/09 09:34:41;;;;;;;9.02;4.60;;;;;;;;;;6213854;23;20193;-93
2021/04/09 09:37:47;;;;;;;9.13;4.88;;;;;;;;;;6213613;23;20174;-91
2021/04/09 09:40:57;;;;;;;7.97;4.65;;;;;;;;;;6234575;22;20191;-90
2021/04/09 09:44:02;;;;;;;8.93;4.68;;;;;;;;;;6216156;23;20171;-88
2021/04/09 09:47:07;;;;;;;9.82;4.35;;;;;;;;;;6212404;22;20179;-89
2021/04/09 09:50:29;;;;;;;9.32;4.47;;;;;;;;;;6214396;23;20239;-93
2021/04/09 09:53:49;;;;;;;9.38;5.30;;;;;;;;;;6211238;23;20207;-91
2021/04/09 09:56:53;;;;;;;9.13;3.97;;;;;;;;;;6212375;23;20175;-92
2021/04/09 10:00:02;;;;;;;8.20;4.65;;;;;;;;;;6212526;22;20156;-90
2021/04/09 10:03:11;;;;;;;11.90;4.82;;;;;;;;;;6231185;23;20191;-92
2021/04/09 10:06:17;;;;;;;8.50;3.72;;;;;;;;;;6212213;23;20658;-94
2021/04/09 10:09:25;;;;;;;6.97;3.60;;;;;;;;;;6216585;23;20166;-92
2021/04/09 10:12:31;;;;;;;28.30;4.47;;;;;;;;;;6216223;23;20266;-92
2021/04/09 10:15:35;;;;;;;15.43;2.95;;;;;;;;;;6214096;22;20159;-91
2021/04/09 10:18:40;;;;;;;4.07;2.40;;;;;;;;;;6214971;22;20170;-89
2021/04/09 10:21:46;;;;;;;7.55;2.40;;;;;;;;;;6214513;23;20219;-90
2021/04/09 10:24:51;;;;;;;8.35;3.13;;;;;;;;;;6213499;23;20214;-88
2021/04/09 10:27:56;;;;;;;5.85;2.90;;;;;;;;;;6214726;23;20191;-91
2021/04/09 10:31:13;;;;;;;5.90;3.38;;;;;;;;;;6213931;23;20210;-90
2021/04/09 10:34:22;;;;;;;11.30;3.30;;;;;;;;;;6214203;22;20220;-92
2021/04/09 10:37:27;;;;;;;8.35;3.45;;;;;;;;;;6214490;23;20167;-92
2021/04/09 10:40:32;;;;;;;7.25;3.17;;;;;;;;;;6214311;23;20194;-90
2021/04/09 10:43:37;;;;;;;5.85;3.20;;;;;;;;;;6213366;23;20171;-93
2021/04/09 10:46:44;;;;;;;10.30;2.90;;;;;;;;;;6215876;22;20195;-93
2021/04/09 10:49:50;;;;;;;5.53;3.00;;;;;;;;;;6214087;23;20175;-93
2021/04/09 10:52:56;;;;;;;5.70;3.20;;;;;;;;;;6213530;23;20171;-94
2021/04/09 10:56:04;;;;;;;7.30;3.10;;;;;;;;;;6213459;23;20162;-90
2021/04/09 10:59:10;;;;;;;6.05;3.20;;;;;;;;;;6213682;23;20187;-92
2021/04/09 11:02:21;;;;;;;6.30;3.30;;;;;;;;;;6213832;22;20216;-92
2021/04/09 11:05:27;;;;;;;8.27;3.28;;;;;;;;;;6214580;22;20168;-91
2021/04/09 11:08:34;;;;;;;5.68;3.15;;;;;;;;;;6217782;23;20203;-92
2021/04/09 11:11:40;;;;;;;6.45;3.13;;;;;;;;;;6213366;23;20233;-92
2021/04/09 11:14:44;;;;;;;5.85;3.30;;;;;;;;;;6211259;23;20163;-91
2021/04/09 11:17:53;;;;;;;7.50;3.45;;;;;;;;;;6212427;22;20176;-91
2021/04/09 11:20:58;;;;;;;8.02;3.80;;;;;;;;;;6210785;22;20187;-92
2021/04/09 11:24:04;;;;;;;8.80;3.40;;;;;;;;;;6210375;23;20220;-92
2021/04/09 11:27:18;;;;;;;8.25;3.55;;;;;;;;;;6211414;23;20224;-91
2021/04/09 11:30:23;;;;;;;5.95;3.20;;;;;;;;;;6207611;23;20195;-91
2021/04/09 11:33:32;;;;;;;7.50;3.45;;;;;;;;;;6210156;23;20175;-92
2021/04/09 11:36:41;;;;;;;15.50;3.83;;;;;;;;;;6209125;22;20163;-91
2021/04/09 11:39:54;;;;;;;6.10;3.10;;;;;;;;;;6209923;23;20187;-93
2021/04/09 11:42:59;;;;;;;7.88;3.30;;;;;;;;;;6211351;23;20218;-92
2021/04/09 11:46:04;;;;;;;7.22;3.63;;;;;;;;;;6208345;23;20622;-91
2021/04/09 11:49:09;;;;;;;4.65;3.00;;;;;;;;;;6208868;23;20187;-90
2021/04/09 11:52:14;;;;;;;6.57;3.10;;;;;;;;;;6208403;23;20203;-91
2021/04/09 11:55:21;;;;;;;8.48;3.60;;;;;;;;;;6210786;23;20182;-92
2021/04/09 11:58:26;;;;;;;5.93;3.20;;;;;;;;;;6210510;23;20171;-91
2021/04/09 12:01:31;;;;;;;4.43;3.00;;;;;;;;;;6210079;23;20229;-91
2021/04/09 12:04:37;;;;;;;6.57;3.33;;;;;;;;;;6209740;23;20175;-93
2021/04/09 12:07:42;;;;;;;7.63;3.42;;;;;;;;;;6210231;23;20174;-92
2021/04/09 12:10:48;;;;;;;7.38;3.33;;;;;;;;;;6209525;23;20239;-92
2021/04/09 12:13:53;;;;;;;6.40;3.30;;;;;;;;;;6209339;23;20171;-91
2021/04/09 12:16:57;;;;;;;4.00;3.08;;;;;;;;;;6215286;23;20186;-91
2021/04/09 12:20:02;;;;;;;7.22;3.47;;;;;;;;;;6217313;22;20190;-90
2021/04/09 12:23:07;;;;;;;6.68;2.70;;;;;;;;;;6218136;23;20218;-91
2021/04/09 12:26:13;;;;;;;9.40;3.42;;;;;;;;;;6218677;23;20179;-90
2021/04/09 12:29:18;;;;;;;7.75;3.35;;;;;;;;;;6217617;23;20167;-91
2021/04/09 12:32:25;;;;;;;7.38;3.20;;;;;;;;;;6215713;23;20244;-91
2021/04/09 12:35:30;;;;;;;9.02;3.00;;;;;;;;;;6215316;23;20203;-90
2021/04/09 12:38:34;;;;;;;8.65;3.83;;;;;;;;;;6217085;23;20167;-91
2021/04/09 12:41:40;;;;;;;7.78;3.53;;;;;;;;;;6215394;23;20171;-90
2021/04/09 12:44:44;;;;;;;10.88;3.50;;;;;;;;;;6233879;23;20190;-91
2021/04/09 12:47:49;;;;;;;7.57;3.45;;;;;;;;;;6216885;23;20234;-90
2021/04/09 12:50:54;;;;;;;4.95;2.90;;;;;;;;;;6216659;23;20170;-90
2021/04/09 12:54:01;;;;;;;9.95;3.10;;;;;;;;;;6217415;23;20155;-89
2021/04/09 12:57:07;;;;;;;5.50;3.10;;;;;;;;;;6218010;22;20531;-89
2021/04/09 13:00:13;;;;;;;9.45;3.40;;;;;;;;;;6219082;23;20167;-90
2021/04/09 13:03:18;;;;;;;9.50;3.25;;;;;;;;;;6217377;22;20675;-89
2021/04/09 13:06:22;;;;;;;6.72;3.22;;;;;;;;;;6217156;23;20206;-91
2021/04/09 13:09:27;;;;;;;6.57;3.10;;;;;;;;;;6210347;23;20171;-91
2021/04/09 13:12:33;;;;;;;9.85;3.85;;;;;;;;;;6213114;23;20178;-90
2021/04/09 13:15:38;;;;;;;7.95;3.90;;;;;;;;;;6212025;23;20479;-91
2021/04/09 13:18:43;;;;;;;6.28;2.97;;;;;;;;;;6212949;23;20243;-92
2021/04/09 13:21:47;;;;;;;8.35;4.15;;;;;;;;;;6213758;23;20171;-91
2021/04/09 13:24:52;;;;;;;8.43;3.80;;;;;;;;;;6212027;23;20239;-90
2021/04/09 13:27:57;;;;;;;7.80;3.40;;;;;;;;;;6211196;22;20263;-91
2021/04/09 13:31:02;;;;;;;6.65;3.75;;;;;;;;;;6209654;23;20250;-90
2021/04/09 13:34:07;;;;;;;6.65;3.53;;;;;;;;;;6209305;23;20171;-89
2021/04/09 13:37:12;;;;;;;10.60;4.03;;;;;;;;;;6208952;23;20170;-89
2021/04/09 13:40:17;;;;;;;7.35;3.75;;;;;;;;;;6206847;23;20199;-88
2021/04/09 13:43:22;;;;;;;7.30;3.85;;;;;;;;;;6210042;23;20171;-90
2021/04/09 13:46:26;;;;;;;7.22;3.78;;;;;;;;;;6208689;23;20179;-88
2021/04/09 13:49:31;;;;;;;10.55;4.10;;;;;;;;;;6208477;23;20187;-89
2021/04/09 13:52:36;;;;;;;7.00;4.00;;;;;;;;;;6225431;23;20171;-87
2021/04/09 13:55:41;;;;;;;7.22;3.97;;;;;;;;;;6209486;23;20208;-87
2021/04/09 13:58:49;;;;;;;8.32;3.72;;;;;;;;;;6209038;23;20167;-88
2021/04/09 14:01:53;;;;;;;8.65;3.83;;;;;;;;;;6209338;22;20186;-89
2021/04/09 14:04:57;;;;;;;8.80;4.25;;;;;;;;;;6208174;23;20191;-89
2021/04/09 14:08:02;;;;;;;11.88;3.90;;;;;;;;;;6209289;23;20191;-89
2021/04/09 14:11:07;;;;;;;8.90;4.05;;;;;;;;;;6208426;23;20171;-88
2021/04/09 14:14:12;;;;;;;15.48;6.18;;;;;;;;;;6206488;23;20175;-89
2021/04/09 14:17:17;;;;;;;11.45;3.80;;;;;;;;;;6208165;23;20503;-89
2021/04/09 14:20:22;;;;;;;18.17;5.55;;;;;;;;;;6211093;23;20240;-89
2021/04/09 14:23:27;;;;;;;10.93;4.35;;;;;;;;;;6208424;23;20171;-89
2021/04/09 14:26:32;;;;;;;6.93;4.00;;;;;;;;;;6208240;23;20175;-91
2021/04/09 14:29:38;;;;;;;10.38;3.90;;;;;;;;;;6208282;23;20199;-89
2021/04/09 14:32:43;;;;;;;14.85;4.25;;;;;;;;;;6207846;23;20195;-90
2021/04/09 14:35:48;;;;;;;8.90;4.28;;;;;;;;;;6210538;23;20191;-91
2021/04/09 14:38:53;;;;;;;6.22;3.60;;;;;;;;;;6213068;23;20175;-91
2021/04/09 14:41:58;;;;;;;9.73;4.50;;;;;;;;;;6213216;23;20174;-88
2021/04/09 14:45:04;;;;;;;5.78;3.75;;;;;;;;;;6212671;23;20187;-91
2021/04/09 14:48:09;;;;;;;10.35;4.43;;;;;;;;;;6211116;23;20187;-92
2021/04/09 14:51:13;;;;;;;9.13;4.57;;;;;;;;;;6213481;22;20190;-88
2021/04/09 15:20:44;;;;;;;14.13;5.55;;;;;;;;;;6218542;22;20206;-90
2021/04/09 15:23:49;;;;;;;15.35;4.40;;;;;;;;;;6241965;23;20190;-88
2021/04/09 15:26:53;;;;;;;7.45;3.45;;;;;;;;;;6240573;23;20206;-90
2021/04/09 15:29:57;;;;;;;9.80;3.80;;;;;;;;;;6240222;23;20217;-89
2021/04/09 15:33:03;;;;;;;8.25;3.45;;;;;;;;;;6222215;23;20217;-88
2021/04/09 15:36:10;;;;;;;10.98;4.50;;;;;;;;;;6241931;23;20167;-91
2021/04/09 15:39:14;;;;;;;7.00;3.80;;;;;;;;;;6241498;23;20170;-91
2021/04/09 15:42:19;;;;;;;8.32;4.28;;;;;;;;;;6240217;23;20166;-90
2021/04/09 15:45:26;;;;;;;9.65;4.07;;;;;;;;;;6243938;23;20162;-91
2021/04/09 15:48:32;;;;;;;11.60;4.50;;;;;;;;;;6243144;23;20217;-91
2021/04/09 15:51:38;;;;;;;10.65;4.45;;;;;;;;;;6242939;23;20163;-91
2021/04/09 15:54:42;;;;;;;8.75;4.00;;;;;;;;;;6244439;23;20174;-91
2021/04/09 15:57:49;;;;;;;13.73;4.15;;;;;;;;;;6241386;23;20170;-91
2021/04/09 16:00:53;;;;;;;9.50;4.32;;;;;;;;;;6242248;23;20153;-89
2021/04/09 16:03:57;;;;;;;9.55;3.97;;;;;;;;;;6242921;22;20548;-91
2021/04/09 16:07:03;;;;;;;9.05;4.00;;;;;;;;;;6242189;23;20170;-89
2021/04/09 16:10:09;;;;;;;6.13;3.40;;;;;;;;;;6240992;23;20190;-92
2021/04/09 16:13:14;;;;;;;11.38;3.70;;;;;;;;;;6242645;22;20174;-89
2021/04/09 16:16:19;;;;;;;7.55;3.30;;;;;;;;;;6244606;22;20234;-89
2021/04/09 16:19:24;;;;;;;10.43;3.97;;;;;;;;;;6242096;22;20162;-89
2021/04/09 16:22:29;;;;;;;7.22;3.15;;;;;;;;;;6242464;23;20162;-90
2021/04/09 16:25:34;;;;;;;8.35;3.47;;;;;;;;;;6243382;23;20269;-90
2021/04/09 16:28:39;;;;;;;9.07;3.50;;;;;;;;;;6242870;23;20190;-88
2021/04/09 16:31:44;;;;;;;8.68;3.65;;;;;;;;;;6243056;23;20206;-88
2021/04/09 16:34:50;;;;;;;12.02;3.83;;;;;;;;;;6242938;23;20218;-89
2021/04/09 16:37:57;;;;;;;9.63;3.35;;;;;;;;;;6242620;23;20237;-89
2021/04/09 16:41:01;;;;;;;10.40;3.38;;;;;;;;;;6223720;23;20162;-89
2021/04/09 16:44:08;;;;;;;10.55;4.43;;;;;;;;;;6239928;23;20174;-89
2021/04/09 16:47:15;;;;;;;10.18;3.80;;;;;;;;;;6231228;23;20175;-89
2021/04/09 16:50:20;;;;;;;13.20;4.45;;;;;;;;;;6256078;23;20226;-90
2021/04/09 16:53:25;;;;;;;15.15;4.70;;;;;;;;;;6241030;23;20178;-91
2021/04/09 16:56:30;;;;;;;14.43;5.03;;;;;;;;;;6242275;23;20170;-90
2021/04/09 17:00:05;;;;;;;9.52;4.70;;;;;;;;;;6242431;23;20170;-88
2021/04/09 17:03:10;;;;;;;9.10;4.25;;;;;;;;;;6242955;23;20182;-91
2021/04/09 17:06:14;;;;;;;12.57;4.88;;;;;;;;;;6244327;23;20447;-90
2021/04/09 17:09:21;;;;;;;13.60;5.07;;;;;;;;;;6241010;23;20645;-89
2021/04/09 17:12:26;;;;;;;11.70;5.10;;;;;;;;;;6242087;23;20154;-89
2021/04/09 17:15:30;;;;;;;16.20;4.55;;;;;;;;;;6240260;23;20186;-88
2021/04/09 17:18:36;;;;;;;12.77;5.75;;;;;;;;;;6242124;22;20163;-87
2021/04/09 17:21:40;;;;;;;19.88;7.70;;;;;;;;;;6241701;23;20225;-89
2021/04/09 17:24:49;;;;;;;20.35;8.23;;;;;;;;;;6240950;23;20224;-90
2021/04/09 17:27:54;;;;;;;26.17;8.70;;;;;;;;;;6242005;23;20260;-89
2021/04/09 17:30:59;;;;;;;14.77;5.70;;;;;;;;;;6243474;23;20170;-87
2021/04/09 17:38:18;;;;;;;26.67;9.68;;;;;;;;;;6260833;22;20178;-88
2021/04/09 17:41:24;;;;;;;34.97;13.13;;;;;;;;;;6238007;23;20190;-88
2021/04/09 17:44:29;;;;;;;21.63;8.57;;;;;;;;;;6241001;22;20190;-88
2021/04/09 17:47:34;;;;;;;23.45;10.10;;;;;;;;;;6239915;23;20529;-89
2021/04/09 17:50:39;;;;;;;15.82;6.32;;;;;;;;;;6241245;23;20198;-90
2021/04/09 17:53:44;;;;;;;15.63;5.50;;;;;;;;;;6241583;23;20206;-89
2021/04/09 17:56:49;;;;;;;15.13;7.75;;;;;;;;;;6240294;23;20163;-87
2021/04/09 17:59:53;;;;;;;16.75;6.80;;;;;;;;;;6239194;23;20209;-89
2021/04/09 18:02:59;;;;;;;15.98;6.32;;;;;;;;;;6242080;23;20245;-91
2021/04/09 18:06:04;;;;;;;11.68;4.30;;;;;;;;;;6242034;23;20197;-90
2021/04/09 18:09:10;;;;;;;13.40;5.10;;;;;;;;;;6244333;23;20198;-89
2021/04/09 18:12:17;;;;;;;14.63;5.00;;;;;;;;;;6243298;23;20216;-90
2021/04/09 18:15:21;;;;;;;15.68;6.95;;;;;;;;;;6242229;23;20178;-90
2021/04/09 18:18:26;;;;;;;20.00;5.55;;;;;;;;;;6244871;22;20223;-88
2021/04/09 18:21:31;;;;;;;12.77;4.68;;;;;;;;;;6243206;23;20209;-88
2021/04/09 18:24:36;;;;;;;12.38;6.50;;;;;;;;;;6242516;23;20167;-90
2021/04/09 18:27:50;;;;;;;11.45;5.90;;;;;;;;;;6242497;23;20245;-90
2021/04/09 18:30:55;;;;;;;13.60;5.93;;;;;;;;;;6240680;23;20166;-90
2021/04/09 18:34:00;;;;;;;11.07;5.05;;;;;;;;;;6244050;23;20166;-88
2021/04/09 18:37:05;;;;;;;14.48;6.10;;;;;;;;;;6243151;23;20174;-90
2021/04/09 18:40:10;;;;;;;12.00;4.88;;;;;;;;;;6242460;23;20190;-89
2021/04/09 18:43:16;;;;;;;15.60;7.57;;;;;;;;;;6242980;23;20170;-89
2021/04/09 18:46:21;;;;;;;11.07;5.10;;;;;;;;;;6243417;23;20170;-89
2021/04/09 18:49:26;;;;;;;38.92;17.40;;;;;;;;;;6241498;23;20206;-90